Time;durP1;ratioP1;P1;durP2;ratioP2;P2;SDS_P1;SDS_P2;PMS_P1;PMS_P2;Temp;Humidity;BMP_temperature;BMP_pressure;BME280_temperature;BME280_humidity;BME280_pressure;Samples;Min_cycle;Max_cycle;Signal;HPM_P1;HPM_P2
2023/08/06 00:00:42;;;;;;;4.63;2.60;;;15.70;99.90;;;17.58;62.50;96877.38;5014706;28;20469;-57
2023/08/06 00:03:10;;;;;;;4.28;2.72;;;15.70;99.90;;;17.55;62.32;96875.13;5013453;28;20053;-57
2023/08/06 00:05:41;;;;;;;3.53;2.90;;;15.70;99.90;;;17.51;62.52;96878.28;5014541;28;20041;-57
2023/08/06 00:08:08;;;;;;;4.05;2.92;;;15.60;99.90;;;17.48;62.33;96883.28;5012930;28;20042;-57
2023/08/06 00:10:36;;;;;;;2.85;2.30;;;15.60;99.90;;;17.45;62.24;96881.84;5013232;28;20050;-55
2023/08/06 00:13:03;;;;;;;4.68;2.63;;;15.60;99.90;;;17.41;62.30;96871.75;5028519;28;20501;-57
2023/08/06 00:15:31;;;;;;;2.92;2.28;;;15.50;99.90;;;17.37;62.34;96866.00;5013200;28;20501;-57
2023/08/06 00:17:59;;;;;;;3.22;2.80;;;15.50;99.90;;;17.36;62.49;96869.75;5012030;28;20046;-57
2023/08/06 00:20:26;;;;;;;4.45;2.58;;;15.50;99.90;;;17.35;62.21;96864.56;5013020;28;20046;-57
2023/08/06 00:22:54;;;;;;;3.97;2.75;;;15.50;99.90;;;17.34;62.15;96865.63;5013037;28;20046;-57
2023/08/06 00:25:21;;;;;;;4.68;2.47;;;15.50;99.90;;;17.30;62.08;96855.31;5013042;28;20501;-57
2023/08/06 00:27:49;;;;;;;4.00;2.10;;;15.50;99.90;;;17.27;62.05;96863.84;5012389;28;20405;-57
2023/08/06 00:30:18;;;;;;;4.25;2.45;;;15.50;99.90;;;17.27;62.06;96861.16;4995394;28;20050;-57
2023/08/06 00:32:45;;;;;;;4.55;2.60;;;15.50;99.90;;;17.23;61.81;96849.16;5028139;28;20045;-57
2023/08/06 00:35:13;;;;;;;2.83;1.98;;;15.40;99.90;;;17.23;61.89;96854.53;5002320;28;20050;-58
2023/08/06 00:37:41;;;;;;;3.65;2.58;;;15.40;99.90;;;17.21;61.93;96851.25;5011479;28;20053;-56
2023/08/06 00:40:09;;;;;;;3.45;2.22;;;15.40;99.30;;;17.22;61.73;96852.91;5011173;28;20053;-56
2023/08/06 00:42:37;;;;;;;3.10;2.20;;;15.50;99.30;;;17.22;61.88;96849.41;5011290;28;20046;-58
2023/08/06 00:45:05;;;;;;;3.20;2.47;;;15.50;99.30;;;17.23;62.00;96845.66;5011311;28;20436;-57
2023/08/06 00:47:32;;;;;;;4.40;2.80;;;15.60;99.00;;;17.28;62.04;96845.81;5012860;28;20061;-56
2023/08/06 00:50:01;;;;;;;2.88;2.33;;;15.60;99.00;;;17.28;61.95;96840.44;5011254;28;20049;-57
2023/08/06 00:52:28;;;;;;;2.88;2.22;;;15.60;98.40;;;17.28;61.81;96832.38;5012872;28;20050;-56
2023/08/06 00:54:56;;;;;;;4.03;2.65;;;15.60;98.90;;;17.24;61.74;96837.38;5011294;28;20046;-58
2023/08/06 00:57:26;;;;;;;3.03;2.63;;;15.50;99.00;;;17.27;61.79;96825.34;4995077;28;20059;-57
2023/08/06 00:59:54;;;;;;;4.05;2.90;;;15.60;98.70;;;17.25;61.69;96824.75;5019314;28;20523;-56
2023/08/06 01:02:21;;;;;;;3.35;2.70;;;15.60;97.50;;;17.26;61.58;96821.03;5011284;28;20513;-58
2023/08/06 01:04:49;;;;;;;3.58;2.55;;;15.50;97.70;;;17.22;61.68;96815.25;5011956;28;20413;-57
2023/08/06 01:11:05;;;;;;;3.20;2.22;;;15.50;97.40;;;17.18;61.41;96813.25;5065635;28;20779;-57
2023/08/06 01:13:54;;;;;;;2.80;2.08;;;15.40;97.30;;;17.16;61.34;96813.47;5040142;28;20060;-57
2023/08/06 01:16:23;;;;;;;3.30;2.40;;;15.40;97.40;;;17.14;61.36;96807.50;5047456;28;20072;-57
2023/08/06 01:18:51;;;;;;;3.05;2.30;;;15.30;98.10;;;17.10;61.44;96809.81;5030154;28;20062;-56
2023/08/06 01:21:19;;;;;;;3.00;2.53;;;15.30;98.00;;;17.10;61.42;96811.69;5046997;28;20061;-57
2023/08/06 01:23:47;;;;;;;5.50;2.67;;;15.30;98.20;;;17.09;61.47;96818.09;5048705;28;20041;-57
2023/08/06 01:26:42;;;;;;;6.75;3.00;;;15.30;97.60;;;17.05;61.49;96811.50;5038969;28;20042;-57
2023/08/06 01:29:25;;;;;;;3.53;2.67;;;15.30;97.70;;;17.05;61.29;96809.63;5046519;28;20523;-56
2023/08/06 01:31:55;;;;;;;2.92;2.63;;;15.30;98.10;;;17.04;61.52;96812.53;5047287;28;20041;-56
2023/08/06 01:34:28;;;;;;;3.80;2.30;;;15.20;98.20;;;17.03;61.36;96806.34;5030925;28;20041;-55
2023/08/06 01:36:56;;;;;;;4.45;2.70;;;15.20;98.40;;;17.04;61.37;96799.94;5046878;28;20048;-56
2023/08/06 01:39:24;;;;;;;4.13;2.45;;;15.20;98.10;;;17.04;61.37;96808.00;5046421;28;20072;-56
2023/08/06 01:41:51;;;;;;;3.33;2.45;;;15.20;98.20;;;17.05;61.50;96806.94;5048173;28;20049;-57
2023/08/06 01:44:19;;;;;;;3.83;2.53;;;15.30;98.80;;;17.04;61.53;96802.63;5046591;28;20053;-55
2023/08/06 01:46:47;;;;;;;3.13;2.60;;;15.30;98.10;;;17.05;61.49;96796.19;5048488;28;20049;-56
2023/08/06 01:49:15;;;;;;;2.70;2.40;;;15.30;97.80;;;17.04;61.42;96799.94;5046095;28;20045;-55
2023/08/06 01:51:42;;;;;;;4.07;2.65;;;15.20;98.20;;;17.02;61.37;96790.44;5046688;28;20417;-57
2023/08/06 01:54:10;;;;;;;4.03;2.65;;;15.20;98.30;;;16.96;61.45;96785.97;5046119;28;20049;-57
2023/08/06 01:56:38;;;;;;;3.33;2.63;;;15.10;98.50;;;16.88;61.57;96789.75;5046024;28;20045;-56
2023/08/06 01:59:06;;;;;;;3.50;2.60;;;15.10;98.80;;;16.82;61.82;96778.03;5046123;28;20045;-55
2023/08/06 02:01:33;;;;;;;3.33;2.65;;;15.00;99.40;;;16.86;61.67;96775.72;5038482;28;20437;-57
2023/08/06 02:04:01;;;;;;;4.00;2.40;;;15.10;99.00;;;16.86;61.74;96762.28;5046309;28;20052;-54
2023/08/06 02:06:29;;;;;;;3.65;2.03;;;15.00;98.70;;;16.84;61.75;96767.06;5045705;28;20053;-54
2023/08/06 02:08:56;;;;;;;2.70;2.15;;;15.10;98.30;;;16.82;61.56;96761.91;5045767;28;20041;-54
2023/08/06 02:11:24;;;;;;;7.60;2.35;;;15.10;97.60;;;16.80;61.52;96753.19;5046663;28;20519;-55
2023/08/06 02:13:51;;;;;;;3.80;2.63;;;15.10;97.10;;;16.83;61.29;96757.38;5046467;28;20041;-56
2023/08/06 02:16:19;;;;;;;4.72;2.60;;;15.20;96.60;;;16.82;61.32;96751.16;5044929;28;20049;-55
2023/08/06 02:18:47;;;;;;;3.42;2.05;;;15.10;95.90;;;16.79;61.25;96746.19;5046823;28;20033;-56
2023/08/06 02:21:15;;;;;;;3.05;2.17;;;15.10;96.10;;;16.77;61.33;96740.22;5019971;28;20038;-57
2023/08/06 02:23:43;;;;;;;3.50;2.30;;;15.10;95.60;;;16.80;61.13;96749.69;5032870;28;20045;-56
2023/08/06 02:26:11;;;;;;;3.92;2.40;;;15.10;95.50;;;16.74;61.22;96740.66;5032736;28;20048;-55
2023/08/06 02:28:38;;;;;;;3.85;2.33;;;15.00;95.10;;;16.76;61.31;96743.13;5033513;28;20045;-54
2023/08/06 02:31:06;;;;;;;3.70;2.75;;;15.00;95.50;;;16.73;61.11;96739.84;5032838;28;20501;-56
2023/08/06 02:33:37;;;;;;;2.78;2.38;;;15.00;95.20;;;16.72;61.23;96735.50;5033914;28;20050;-56
2023/08/06 02:36:04;;;;;;;2.33;1.85;;;15.00;95.20;;;16.74;61.10;96735.28;5034300;28;20389;-56
2023/08/06 02:38:33;;;;;;;3.15;1.88;;;15.00;95.00;;;16.74;61.16;96732.59;5033348;28;20046;-54
2023/08/06 02:41:04;;;;;;;4.55;2.53;;;15.00;94.80;;;16.76;61.11;96727.00;5032018;28;20046;-57
2023/08/06 02:43:31;;;;;;;5.20;2.20;;;15.00;95.00;;;16.74;60.88;96722.66;5032892;28;20045;-57
2023/08/06 02:46:00;;;;;;;4.40;2.30;;;15.10;94.60;;;16.77;60.88;96728.63;5032083;28;20042;-56
2023/08/06 02:48:28;;;;;;;2.65;2.10;;;15.00;94.50;;;16.74;61.06;96716.47;5015201;28;20049;-55
2023/08/06 02:51:00;;;;;;;3.28;2.47;;;15.00;94.50;;;16.74;60.83;96713.78;5033299;28;20037;-55
2023/08/06 02:53:29;;;;;;;5.38;2.40;;;15.00;94.70;;;16.69;60.98;96714.47;5032424;28;20033;-56
2023/08/06 02:55:59;;;;;;;3.53;2.30;;;14.90;94.70;;;16.64;60.69;96708.13;5024344;28;20052;-56
2023/08/06 02:58:36;;;;;;;4.70;2.83;;;14.80;95.10;;;16.61;60.86;96701.28;5031616;28;20037;-56
2023/08/06 03:01:12;;;;;;;3.22;2.13;;;14.80;95.40;;;16.59;61.09;96698.00;5016399;28;20053;-54
2023/08/06 03:03:46;;;;;;;2.22;1.83;;;14.80;95.00;;;16.59;61.29;96700.69;5025301;28;20041;-56
2023/08/06 03:06:21;;;;;;;4.60;2.03;;;14.80;95.50;;;16.57;61.30;96707.34;5031840;28;20049;-55
2023/08/06 03:08:52;;;;;;;2.42;2.10;;;14.80;95.80;;;16.58;61.16;96700.94;5031120;28;20057;-54
2023/08/06 03:11:20;;;;;;;4.15;2.28;;;14.80;94.90;;;16.58;61.38;96698.25;5031252;28;20421;-56
2023/08/06 03:13:50;;;;;;;3.40;2.10;;;14.90;95.00;;;16.59;61.12;96707.94;5015524;28;20046;-56
2023/08/06 03:16:18;;;;;;;4.25;1.98;;;14.90;94.60;;;16.58;61.20;96709.81;5032616;28;20048;-55
2023/08/06 03:18:46;;;;;;;3.65;2.53;;;15.00;94.10;;;16.64;61.19;96708.13;5031014;28;20053;-54
2023/08/06 03:21:14;;;;;;;5.43;2.05;;;15.10;93.40;;;16.69;60.83;96710.94;5031807;28;20417;-56
2023/08/06 03:23:42;;;;;;;5.50;2.28;;;15.20;92.70;;;16.76;60.65;96708.19;5025065;28;20056;-55
2023/08/06 03:26:10;;;;;;;4.18;1.83;;;15.10;92.10;;;16.76;60.72;96708.19;5033008;28;20037;-54
2023/08/06 03:28:38;;;;;;;3.75;2.30;;;15.10;92.20;;;16.81;60.61;96714.53;5031549;28;20045;-56
2023/08/06 03:31:06;;;;;;;4.93;2.20;;;15.20;92.00;;;16.88;60.42;96707.25;5014653;28;20049;-52
2023/08/06 03:33:43;;;;;;;3.70;2.38;;;15.30;91.70;;;16.96;60.36;96708.00;5031010;28;20531;-55
2023/08/06 03:36:15;;;;;;;3.25;2.28;;;15.30;91.60;;;16.98;60.50;96709.41;5031465;28;20433;-56
2023/08/06 03:38:43;;;;;;;3.47;2.08;;;15.30;91.70;;;16.96;60.18;96718.75;5024423;28;20048;-56
2023/08/06 03:41:13;;;;;;;3.03;2.05;;;15.30;91.40;;;16.97;60.33;96715.03;5031961;28;20057;-56
2023/08/06 03:43:41;;;;;;;3.92;2.22;;;15.30;91.70;;;16.97;60.23;96717.72;5031199;28;20056;-56
2023/08/06 03:46:13;;;;;;;2.88;1.90;;;15.30;91.20;;;16.99;60.12;96719.13;5030994;28;20045;-55
2023/08/06 03:48:41;;;;;;;3.08;2.35;;;15.30;91.60;;;17.01;60.21;96718.91;5030031;28;20049;-56
2023/08/06 03:51:09;;;;;;;3.45;2.00;;;15.30;91.80;;;17.04;60.39;96716.59;5030609;28;20301;-56
2023/08/06 03:53:38;;;;;;;4.25;2.70;;;15.30;91.80;;;17.08;60.22;96717.78;5030893;28;20060;-56
2023/08/06 03:56:06;;;;;;;3.80;2.20;;;15.40;91.70;;;17.09;60.46;96719.41;5014701;28;20210;-55
2023/08/06 03:58:34;;;;;;;3.53;2.20;;;15.40;91.90;;;17.13;60.58;96725.16;5030408;28;20041;-56
2023/08/06 04:01:03;;;;;;;3.65;2.08;;;15.40;92.30;;;17.15;60.46;96719.56;5031018;28;20394;-56
2023/08/06 04:03:39;;;;;;;2.30;1.90;;;15.40;92.60;;;17.16;60.52;96718.50;5015812;28;20049;-56
2023/08/06 04:06:08;;;;;;;4.07;2.25;;;15.40;92.50;;;17.10;60.64;96718.38;5031206;28;20394;-55
2023/08/06 04:08:37;;;;;;;5.28;2.05;;;15.40;93.00;;;17.13;60.90;96734.03;5030050;28;20045;-57
2023/08/06 04:11:04;;;;;;;3.10;2.08;;;15.40;93.60;;;17.12;60.62;96721.66;5029408;28;20495;-57
2023/08/06 04:13:32;;;;;;;4.18;2.05;;;15.40;93.20;;;17.13;60.84;96733.22;5032013;28;20033;-57
2023/08/06 04:16:03;;;;;;;2.17;1.70;;;15.40;93.60;;;17.16;60.82;96743.56;5030423;28;20493;-56
2023/08/06 04:18:32;;;;;;;3.35;2.08;;;15.40;93.60;;;17.17;60.78;96726.34;5030105;28;20062;-56
2023/08/06 04:21:02;;;;;;;3.08;2.05;;;15.50;93.80;;;17.18;60.74;96725.31;5030281;28;20497;-53
2023/08/06 04:23:29;;;;;;;6.13;2.22;;;15.50;93.70;;;17.18;60.75;96719.13;5031951;28;20045;-55
2023/08/06 04:26:02;;;;;;;4.80;1.95;;;15.40;93.80;;;17.18;60.61;96730.69;5014832;28;20052;-56
2023/08/06 04:28:34;;;;;;;2.50;1.92;;;15.40;93.40;;;17.16;60.53;96730.09;5030472;28;20060;-55
2023/08/06 04:31:02;;;;;;;4.63;2.10;;;15.40;93.50;;;17.16;60.75;96734.63;5030114;28;20042;-56
2023/08/06 04:33:33;;;;;;;3.42;2.33;;;15.40;93.80;;;17.17;60.69;96733.59;5030979;28;20417;-53
2023/08/06 04:36:06;;;;;;;3.33;1.48;;;15.50;93.60;;;17.13;60.77;96731.34;5030215;28;20041;-56
2023/08/06 04:38:34;;;;;;;3.15;1.88;;;15.40;93.50;;;17.14;60.65;96734.88;5029978;28;20060;-57
2023/08/06 04:41:05;;;;;;;4.75;2.15;;;15.40;93.10;;;17.05;60.80;96722.78;5031241;28;20045;-55
2023/08/06 04:43:33;;;;;;;3.88;1.90;;;15.40;92.60;;;17.02;60.73;96721.38;5030101;28;20049;-57
2023/08/06 04:46:00;;;;;;;2.58;1.85;;;15.30;93.30;;;17.01;60.52;96726.97;5029957;28;20522;-57
2023/08/06 04:48:28;;;;;;;3.45;1.85;;;15.30;93.30;;;17.00;60.65;96725.31;5031394;28;20050;-57
2023/08/06 04:50:56;;;;;;;2.78;1.05;;;15.30;93.30;;;16.95;60.62;96728.69;5030265;28;20067;-56
2023/08/06 04:53:23;;;;;;;2.15;1.40;;;15.20;92.00;;;16.87;60.22;96737.06;5031730;28;20432;-56
2023/08/06 04:55:51;;;;;;;1.23;0.93;;;15.10;90.90;;;16.80;60.50;96725.50;5031554;28;20046;-51
2023/08/06 04:58:18;;;;;;;3.88;1.10;;;15.10;92.10;;;16.79;60.41;96731.91;5030954;28;20052;-53
2023/08/06 05:00:46;;;;;;;2.95;1.83;;;15.10;91.70;;;16.79;60.38;96735.44;5031231;28;20050;-55
2023/08/06 05:03:14;;;;;;;2.72;1.33;;;15.10;91.80;;;16.82;60.51;96726.94;5031456;28;20524;-56
2023/08/06 05:05:41;;;;;;;2.03;1.17;;;15.20;91.50;;;16.72;60.60;96726.63;5031181;28;20493;-56
2023/08/06 05:08:18;;;;;;;1.38;1.00;;;15.10;91.20;;;16.81;60.60;96733.34;5021406;28;20041;-54
2023/08/06 05:10:45;;;;;;;1.77;1.40;;;15.20;90.80;;;16.88;60.51;96723.38;5013646;28;20049;-56
2023/08/06 05:13:13;;;;;;;1.73;1.27;;;15.30;91.00;;;16.97;60.30;96718.53;5029673;28;20052;-57
2023/08/06 05:15:42;;;;;;;1.48;1.00;;;15.40;89.90;;;17.00;59.99;96719.94;5030408;28;20048;-56
2023/08/06 05:18:11;;;;;;;1.30;1.08;;;15.50;89.00;;;17.02;59.90;96725.91;5030979;28;20046;-57
2023/08/06 05:20:41;;;;;;;1.05;0.85;;;15.50;88.80;;;17.06;59.71;96722.56;5029685;28;20054;-57
2023/08/06 05:23:09;;;;;;;2.63;0.90;;;15.50;88.80;;;17.13;59.76;96719.78;5031077;28;20041;-57
2023/08/06 05:25:37;;;;;;;1.85;0.70;;;15.50;88.10;;;17.15;59.43;96722.25;5030828;28;20057;-57
2023/08/06 05:28:06;;;;;;;2.35;0.90;;;15.50;87.30;;;17.20;59.55;96725.91;5029721;28;20038;-57
2023/08/06 05:30:33;;;;;;;1.13;0.88;;;15.60;87.90;;;17.24;59.22;96723.59;5030687;28;20053;-57
2023/08/06 05:33:01;;;;;;;0.98;0.90;;;15.60;87.50;;;17.27;59.34;96723.13;5029937;28;20053;-57
2023/08/06 05:35:29;;;;;;;1.10;1.00;;;15.70;87.90;;;17.28;59.19;96730.16;5029575;28;20053;-56
2023/08/06 05:37:56;;;;;;;1.98;0.88;;;15.70;87.30;;;17.28;59.00;96738.22;5030640;28;20041;-58
2023/08/06 05:40:25;;;;;;;1.02;0.80;;;15.70;87.10;;;17.29;59.22;96745.25;5029662;28;20052;-58
2023/08/06 05:42:54;;;;;;;2.75;0.95;;;15.70;87.40;;;17.34;59.05;96745.41;5029292;28;20049;-56
2023/08/06 05:45:22;;;;;;;2.22;1.08;;;15.70;86.60;;;17.38;59.08;96749.28;5013098;28;20049;-57
2023/08/06 05:47:49;;;;;;;2.15;1.00;;;15.80;86.60;;;17.37;58.73;96750.34;5028920;28;20068;-58
2023/08/06 05:50:17;;;;;;;1.58;1.25;;;15.80;85.80;;;17.42;58.78;96746.94;5028869;28;20057;-57
2023/08/06 05:52:45;;;;;;;1.08;0.73;;;15.80;86.30;;;17.45;58.74;96746.50;5030684;28;20144;-57
2023/08/06 05:55:12;;;;;;;1.25;0.65;;;15.80;85.90;;;17.46;58.66;96748.13;5031028;28;20046;-58
2023/08/06 05:57:40;;;;;;;2.17;0.90;;;15.80;85.80;;;17.46;58.52;96758.91;5034343;28;20497;-56
2023/08/06 06:00:08;;;;;;;1.60;1.15;;;15.80;85.40;;;17.42;58.69;96755.84;5034333;28;20041;-58
2023/08/06 06:02:41;;;;;;;2.05;1.00;;;15.80;86.10;;;17.36;59.02;96753.25;5034856;28;20397;-56
2023/08/06 06:05:09;;;;;;;1.08;0.80;;;15.70;87.40;;;17.34;59.47;96749.97;5033123;28;20053;-58
2023/08/06 06:07:37;;;;;;;1.40;0.80;;;15.70;88.80;;;17.30;59.91;96758.47;5034052;28;20060;-55
2023/08/06 06:10:05;;;;;;;3.13;0.90;;;15.60;89.90;;;17.25;60.27;96752.97;5034031;28;20042;-58
2023/08/06 06:12:33;;;;;;;0.75;0.68;;;15.60;91.70;;;17.21;60.37;96751.75;5033010;28;20042;-56
2023/08/06 06:15:01;;;;;;;2.28;1.00;;;15.50;91.70;;;17.22;60.52;96757.97;5033497;28;20041;-57
2023/08/06 06:17:29;;;;;;;1.13;0.70;;;15.50;92.00;;;17.19;60.72;96753.84;5034248;28;20041;-57
2023/08/06 06:19:57;;;;;;;1.45;0.60;;;15.50;92.90;;;17.17;60.80;96761.31;5025576;28;20045;-55
2023/08/06 06:22:25;;;;;;;1.40;0.82;;;15.40;93.50;;;17.15;61.05;96768.78;5034135;28;20045;-57
2023/08/06 06:24:52;;;;;;;1.02;0.95;;;15.40;94.00;;;17.16;60.95;96765.06;5034362;28;20049;-57
2023/08/06 06:27:20;;;;;;;2.03;0.93;;;15.40;93.80;;;17.19;60.89;96769.97;5033993;28;20051;-57
2023/08/06 06:29:47;;;;;;;1.50;1.27;;;15.50;93.80;;;17.20;61.28;96768.94;5033450;28;20045;-55
2023/08/06 06:32:15;;;;;;;1.52;0.82;;;15.50;94.50;;;17.21;61.35;96767.06;5034077;28;20045;-57
2023/08/06 06:34:43;;;;;;;0.80;0.63;;;15.50;94.90;;;17.19;61.47;96774.53;5029600;28;20041;-57
2023/08/06 06:37:10;;;;;;;2.22;0.75;;;15.50;95.50;;;17.13;61.68;96770.88;5031820;28;20045;-58
2023/08/06 06:39:38;;;;;;;1.50;0.80;;;15.40;96.50;;;17.16;61.77;96780.34;5031997;28;20048;-58
2023/08/06 06:42:06;;;;;;;1.80;0.70;;;15.40;97.00;;;17.13;61.96;96776.25;5032362;28;20065;-57
2023/08/06 06:44:38;;;;;;;1.00;0.90;;;15.40;97.20;;;17.10;61.98;96776.72;5048078;28;20053;-58
2023/08/06 06:47:06;;;;;;;1.38;0.88;;;15.40;96.80;;;17.12;61.94;96780.81;5032240;28;20045;-57
2023/08/06 06:49:34;;;;;;;1.25;1.05;;;15.40;97.10;;;17.11;61.92;96778.34;5032670;28;20049;-57
2023/08/06 06:52:01;;;;;;;3.78;0.95;;;15.40;97.10;;;17.07;62.44;96787.91;5023063;28;20038;-56
2023/08/06 06:54:29;;;;;;;0.98;0.80;;;15.40;97.40;;;17.10;62.09;96774.84;5032835;28;20060;-56
2023/08/06 06:56:57;;;;;;;1.08;0.93;;;15.40;97.60;;;17.09;62.44;96773.19;5032234;28;20037;-57
2023/08/06 06:59:24;;;;;;;1.08;0.77;;;15.40;97.30;;;17.14;62.37;96769.84;5032097;28;20041;-57
2023/08/06 07:01:52;;;;;;;1.90;1.20;;;15.40;97.30;;;17.11;62.08;96770.28;5032188;28;20505;-57
2023/08/06 07:04:20;;;;;;;0.98;0.70;;;15.40;97.20;;;17.19;62.29;96778.03;5032472;28;20053;-56
2023/08/06 07:06:48;;;;;;;1.65;0.65;;;15.50;97.50;;;17.21;62.09;96777.81;5032458;28;20049;-56
2023/08/06 07:09:15;;;;;;;1.17;0.80;;;15.50;97.00;;;17.24;62.13;96770.13;5030347;28;20071;-57
2023/08/06 07:11:43;;;;;;;1.33;0.73;;;15.60;96.50;;;17.25;61.99;96773.63;5030559;28;20049;-57
2023/08/06 07:14:11;;;;;;;2.42;0.75;;;15.60;95.20;;;17.23;61.73;96783.81;5031620;28;20060;-57
2023/08/06 07:16:39;;;;;;;0.55;0.55;;;15.60;95.20;;;17.20;61.69;96778.88;5032145;28;20064;-54
2023/08/06 07:19:06;;;;;;;0.93;0.68;;;15.60;94.50;;;17.20;61.83;96778.88;5031682;28;20528;-56
2023/08/06 07:21:34;;;;;;;1.58;0.50;;;15.50;94.70;;;17.19;61.73;96777.22;5032036;28;20056;-55
2023/08/06 07:24:02;;;;;;;0.70;0.70;;;15.60;94.30;;;17.23;61.46;96784.63;5032250;28;20056;-57
2023/08/06 07:26:29;;;;;;;0.30;0.30;;;15.60;94.00;;;17.21;61.28;96784.03;5030406;28;20441;-57
2023/08/06 07:28:57;;;;;;;0.52;0.52;;;15.50;93.50;;;17.18;61.45;96792.56;5031339;28;20500;-56
2023/08/06 07:31:25;;;;;;;0.47;0.40;;;15.50;93.10;;;17.25;61.60;96792.47;5031906;28;20053;-57
2023/08/06 07:33:53;;;;;;;2.15;0.70;;;15.70;93.90;;;17.23;61.48;96800.75;5031701;28;20532;-57
2023/08/06 07:36:21;;;;;;;0.70;0.40;;;15.70;93.00;;;17.29;61.58;96796.34;5031534;28;20112;-56
2023/08/06 07:38:51;;;;;;;0.55;0.55;;;15.70;93.80;;;17.35;61.59;96797.31;5030070;28;20049;-56
2023/08/06 07:41:19;;;;;;;0.80;0.60;;;15.80;93.70;;;17.35;61.72;96792.78;5031717;28;20038;-53
2023/08/06 07:43:46;;;;;;;1.80;0.52;;;15.70;94.00;;;17.38;61.67;96789.63;5031392;28;20354;-56
2023/08/06 07:46:14;;;;;;;1.25;0.50;;;15.80;93.90;;;17.32;61.71;96794.03;5031507;28;20053;-57
2023/08/06 07:48:41;;;;;;;0.45;0.45;;;15.80;94.10;;;17.34;61.56;96793.00;5030922;28;20053;-58
2023/08/06 07:51:09;;;;;;;0.85;0.57;;;15.80;93.10;;;17.33;61.92;96792.16;5031455;28;20045;-57
2023/08/06 07:53:36;;;;;;;0.75;0.38;;;15.70;95.50;;;17.34;61.75;96785.75;5031026;28;20041;-56
2023/08/06 07:56:04;;;;;;;1.38;0.45;;;15.80;94.20;;;17.40;61.71;96778.66;5031718;28;20071;-56
2023/08/06 07:58:32;;;;;;;0.40;0.40;;;15.80;93.50;;;17.40;61.59;96784.03;5029920;28;20053;-55
2023/08/06 08:01:00;;;;;;;0.55;0.43;;;15.80;92.70;;;17.42;61.14;96782.75;5030732;28;20052;-58
2023/08/06 08:03:31;;;;;;;0.40;0.40;;;15.90;91.40;;;17.46;61.04;96780.44;5031454;28;20048;-58
2023/08/06 08:05:59;;;;;;;0.30;0.30;;;16.00;92.00;;;17.37;60.99;96774.56;5029135;28;20065;-56
2023/08/06 08:08:27;;;;;;;0.28;0.28;;;16.00;89.50;;;17.42;60.94;96771.97;5030640;28;20102;-56
2023/08/06 08:10:55;;;;;;;0.40;0.40;;;16.00;90.10;;;17.54;60.90;96779.31;5030835;28;20505;-56
2023/08/06 08:13:24;;;;;;;0.40;0.40;;;16.20;90.20;;;17.67;60.84;96779.13;5031015;28;20053;-57
2023/08/06 08:16:00;;;;;;;1.20;0.85;;;16.30;89.70;;;17.76;60.33;96772.38;5031002;28;20041;-57
2023/08/06 08:18:28;;;;;;;0.50;0.50;;;16.40;87.70;;;17.75;60.09;96776.13;5029769;28;20053;-57
2023/08/06 08:20:56;;;;;;;0.30;0.30;;;16.40;86.40;;;17.80;60.24;96770.88;5030818;28;20049;-57
2023/08/06 08:23:23;;;;;;;0.40;0.40;;;16.50;86.90;;;17.82;59.86;96767.97;5030527;28;20045;-55
2023/08/06 08:25:51;;;;;;;0.28;0.28;;;16.50;86.50;;;17.95;59.75;96780.44;5029100;28;20425;-58
2023/08/06 08:28:19;;;;;;;0.30;0.30;;;16.70;86.20;;;17.93;59.27;96769.06;5029922;28;20041;-56
2023/08/06 08:30:47;;;;;;;1.30;0.40;;;16.70;82.80;;;17.95;58.99;96769.66;5029931;28;20049;-58
2023/08/06 08:33:14;;;;;;;0.35;0.30;;;16.70;82.80;;;18.07;58.76;96767.84;5030816;28;20037;-58
2023/08/06 08:35:42;;;;;;;0.30;0.30;;;16.90;81.70;;;18.13;58.51;96763.41;5030922;28;20045;-57
2023/08/06 08:38:09;;;;;;;0.28;0.28;;;17.00;82.50;;;18.22;58.47;96764.69;5029452;28;20045;-57
2023/08/06 08:40:47;;;;;;;0.40;0.40;;;17.10;82.10;;;18.23;57.94;96753.69;5029288;28;20103;-58
2023/08/06 08:43:15;;;;;;;0.82;0.20;;;17.10;80.50;;;18.16;57.08;96765.63;5014790;28;20045;-59
2023/08/06 08:45:49;;;;;;;0.30;0.30;;;17.00;78.40;;;18.18;58.09;96771.59;5030312;28;20060;-59
2023/08/06 08:48:19;;;;;;;0.65;0.65;;;17.00;81.80;;;18.20;58.80;96774.88;5022721;28;20049;-59
2023/08/06 08:50:49;;;;;;;0.32;0.28;;;16.90;83.90;;;18.19;59.32;96773.25;5029714;28;20056;-58
2023/08/06 08:53:18;;;;;;;1.02;0.30;;;16.80;85.00;;;18.15;59.81;96782.84;5030168;28;20052;-59
2023/08/06 08:55:48;;;;;;;0.50;0.50;;;16.80;86.60;;;18.10;59.83;96768.19;5031524;28;20289;-57
2023/08/06 08:58:16;;;;;;;0.50;0.50;;;16.70;87.50;;;17.98;59.93;96775.41;5023655;28;20042;-55
2023/08/06 09:00:48;;;;;;;2.00;1.27;;;16.60;87.20;;;17.93;60.34;96769.06;5030904;28;20559;-57
2023/08/06 09:03:17;;;;;;;0.32;0.32;;;16.50;89.20;;;17.74;60.57;96782.56;5022710;28;20052;-54
2023/08/06 09:05:48;;;;;;;0.38;0.35;;;16.30;88.50;;;17.79;60.54;96782.69;5031349;28;20049;-58
2023/08/06 09:08:23;;;;;;;1.42;0.43;;;16.30;88.40;;;17.81;60.61;96783.28;5022121;28;20053;-58
2023/08/06 09:10:52;;;;;;;0.85;0.50;;;16.40;89.40;;;17.82;60.80;96786.81;5030714;28;20045;-54
2023/08/06 09:13:21;;;;;;;0.38;0.38;;;16.40;89.80;;;17.81;60.73;96790.53;5031275;28;20054;-56
2023/08/06 09:15:50;;;;;;;0.40;0.40;;;16.50;89.00;;;17.75;60.86;96789.56;5030792;28;20045;-55
2023/08/06 09:18:29;;;;;;;0.50;0.50;;;16.50;88.60;;;17.66;61.11;96797.16;5030836;28;20060;-54
2023/08/06 09:20:58;;;;;;;0.43;0.40;;;16.40;88.30;;;17.68;61.10;96810.38;5030840;28;20033;-55
2023/08/06 09:23:30;;;;;;;0.30;0.30;;;16.50;88.40;;;17.89;60.88;96793.78;5030992;28;20052;-57
2023/08/06 09:25:59;;;;;;;0.65;0.65;;;16.60;88.20;;;17.87;60.34;96797.72;5029622;28;20053;-55
2023/08/06 09:28:41;;;;;;;0.20;0.20;;;16.60;86.70;;;17.74;59.72;96803.25;5030685;28;20065;-53
2023/08/06 09:31:10;;;;;;;0.30;0.30;;;16.50;84.70;;;17.71;59.51;96799.16;5031632;28;20077;-55
2023/08/06 09:33:38;;;;;;;0.52;0.50;;;16.50;85.10;;;17.58;59.69;96813.59;5034903;28;20038;-56
2023/08/06 09:36:11;;;;;;;1.02;0.50;;;16.40;84.70;;;17.55;60.24;96805.19;5033513;28;20042;-56
2023/08/06 09:38:40;;;;;;;0.40;0.40;;;16.30;87.40;;;17.60;60.66;96816.06;5033306;28;20037;-56
2023/08/06 09:41:08;;;;;;;1.00;0.40;;;16.30;88.90;;;17.53;61.05;96810.78;5033571;28;20409;-56
2023/08/06 09:43:42;;;;;;;0.50;0.50;;;16.20;89.30;;;17.54;60.95;96811.59;5034551;28;20045;-57
2023/08/06 09:46:13;;;;;;;0.65;0.60;;;16.20;88.70;;;17.49;61.28;96810.41;5034617;28;20045;-58
2023/08/06 09:48:44;;;;;;;0.60;0.30;;;16.20;89.70;;;17.42;61.53;96801.56;5034403;28;20045;-58
2023/08/06 09:51:13;;;;;;;0.52;0.50;;;16.10;90.60;;;17.58;61.38;96804.69;5034531;28;20049;-58
2023/08/06 09:53:42;;;;;;;0.52;0.30;;;16.20;90.90;;;17.51;61.61;96802.91;5033235;28;20069;-58
2023/08/06 09:56:12;;;;;;;0.30;0.30;;;16.20;92.00;;;17.37;61.71;96798.75;5034516;28;20045;-58
2023/08/06 09:58:39;;;;;;;0.30;0.30;;;16.00;91.20;;;17.41;62.00;96797.25;5033131;28;20053;-55
2023/08/06 10:01:08;;;;;;;0.85;0.65;;;16.10;91.60;;;17.42;61.49;96808.84;5016859;28;20418;-58
2023/08/06 10:03:37;;;;;;;0.20;0.20;;;16.10;89.70;;;17.42;61.24;96806.16;5033056;28;20504;-58
2023/08/06 10:06:08;;;;;;;0.30;0.30;;;16.10;89.70;;;17.48;61.08;96811.44;5032869;28;20045;-58
2023/08/06 10:08:36;;;;;;;0.60;0.60;;;16.20;88.30;;;17.41;60.86;96812.56;5034076;28;20041;-57
2023/08/06 10:11:05;;;;;;;0.30;0.30;;;16.30;86.90;;;17.39;60.32;96811.97;5034432;28;20045;-58
2023/08/06 10:13:34;;;;;;;0.35;0.35;;;16.30;85.20;;;17.65;60.77;96795.50;5033076;28;20049;-59
2023/08/06 10:16:03;;;;;;;0.60;0.60;;;16.60;86.70;;;17.71;59.76;96805.34;5032918;28;20041;-57
2023/08/06 10:18:35;;;;;;;0.30;0.30;;;16.70;83.60;;;17.77;59.87;96794.75;5032783;28;20049;-57
2023/08/06 10:21:03;;;;;;;0.45;0.40;;;16.70;84.20;;;17.71;59.42;96816.13;5032773;28;20046;-57
2023/08/06 10:23:35;;;;;;;0.70;0.40;;;16.70;82.90;;;17.74;59.17;96812.19;5033869;28;20129;-58
2023/08/06 10:26:03;;;;;;;0.43;0.40;;;16.70;82.30;;;17.69;58.78;96802.06;5032942;28;20390;-57
2023/08/06 10:28:38;;;;;;;0.50;0.50;;;16.70;81.60;;;17.74;58.62;96811.31;5033901;28;20045;-58
2023/08/06 10:31:06;;;;;;;1.48;0.50;;;16.70;81.30;;;17.71;58.74;96813.44;5033920;28;20049;-58